Time;durP1;ratioP1;P1;durP2;ratioP2;P2;SDS_P1;SDS_P2;PMS_P1;PMS_P2;Temp;Humidity;BMP_temperature;BMP_pressure;BME280_temperature;BME280_humidity;BME280_pressure;Samples;Min_cycle;Max_cycle;Signal;HPM_P1;HPM_P2
2022/01/24 00:01:08;;;;;;;0.80;0.70;;;6.00;99.90;;;;;;4959698;28;20457;-87
2022/01/24 00:03:34;;;;;;;0.80;0.70;;;5.90;99.90;;;;;;4952518;28;20436;-86
2022/01/24 00:05:59;;;;;;;0.80;0.70;;;6.00;99.90;;;;;;4957441;28;20685;-86
2022/01/24 00:08:25;;;;;;;1.63;1.53;;;6.00;99.90;;;;;;4953452;28;20202;-86
2022/01/24 00:10:52;;;;;;;0.90;0.80;;;5.90;99.90;;;;;;4949782;28;20279;-86
2022/01/24 00:13:32;;;;;;;0.80;0.70;;;6.00;99.90;;;;;;4959307;28;20189;-86
2022/01/24 00:16:18;;;;;;;2.00;1.83;;;6.00;99.90;;;;;;4960263;28;20438;-86
2022/01/24 00:26:53;;;;;;;2.60;2.40;;;6.00;99.90;;;;;;4958796;28;20544;-86
2022/01/24 00:29:20;;;;;;;2.03;1.63;;;5.90;99.90;;;;;;4954789;28;20438;-86
2022/01/24 00:31:47;;;;;;;0.80;0.73;;;5.90;99.90;;;;;;4937002;28;21104;-86
2022/01/24 00:34:13;;;;;;;1.27;1.17;;;5.90;99.90;;;;;;4934403;28;21154;-86
2022/01/24 00:36:39;;;;;;;0.80;0.70;;;5.90;99.90;;;;;;4931586;28;20453;-85
2022/01/24 00:39:06;;;;;;;1.43;1.33;;;5.80;99.90;;;;;;4917209;28;20567;-85
2022/01/24 00:47:06;;;;;;;1.30;1.20;;;5.90;99.90;;;;;;4936400;28;20489;-85
2022/01/24 00:55:01;;;;;;;1.63;1.53;;;5.90;99.90;;;;;;4939284;28;20919;-85
2022/01/24 00:57:26;;;;;;;0.80;0.70;;;5.90;99.90;;;;;;4936080;28;20458;-85
2022/01/24 00:59:52;;;;;;;0.80;0.70;;;5.90;99.90;;;;;;4936544;28;20449;-85
2022/01/24 01:02:19;;;;;;;1.57;1.00;;;5.90;99.90;;;;;;4954839;28;20199;-86
2022/01/24 01:18:20;;;;;;;0.90;0.70;;;5.80;99.90;;;;;;4933212;28;20485;-86
2022/01/24 01:23:13;;;;;;;0.80;0.70;;;5.80;99.90;;;;;;4939893;28;20191;-86
2022/01/24 01:25:41;;;;;;;2.50;2.30;;;5.80;99.90;;;;;;4934196;28;20501;-86
2022/01/24 01:28:07;;;;;;;3.03;2.83;;;5.80;99.90;;;;;;4915126;28;20201;-85
2022/01/24 01:30:41;;;;;;;0.80;0.70;;;5.70;99.90;;;;;;4933237;28;20493;-85
2022/01/24 01:33:19;;;;;;;0.80;0.70;;;5.70;99.90;;;;;;4965381;28;20197;-85
2022/01/24 01:36:42;;;;;;;1.40;1.30;;;5.70;99.90;;;;;;4938000;28;20456;-85
2022/01/24 01:57:12;;;;;;;0.80;0.70;;;5.70;99.90;;;;;;4960702;28;20473;-85
2022/01/24 01:59:38;;;;;;;1.00;0.90;;;5.70;99.90;;;;;;4947622;28;20445;-85
2022/01/24 02:02:03;;;;;;;1.10;1.00;;;5.70;99.90;;;;;;4961890;28;20452;-86
2022/01/24 02:04:29;;;;;;;1.10;1.00;;;5.60;99.90;;;;;;4952007;28;20896;-85
2022/01/24 02:06:55;;;;;;;2.00;1.90;;;5.70;99.90;;;;;;4947102;28;20222;-85
2022/01/24 02:09:27;;;;;;;0.83;0.70;;;5.60;99.90;;;;;;4935429;28;20282;-85
2022/01/24 02:11:53;;;;;;;1.50;1.40;;;5.60;99.90;;;;;;4949443;28;20217;-85
2022/01/24 02:14:21;;;;;;;4.80;2.00;;;5.70;99.90;;;;;;4953947;28;20437;-85
2022/01/24 02:16:52;;;;;;;1.93;1.83;;;5.70;99.90;;;;;;4970228;28;20324;-85
2022/01/24 02:22:04;;;;;;;1.00;0.90;;;5.60;99.90;;;;;;4954381;28;20458;-85
2022/01/24 02:24:40;;;;;;;0.80;0.70;;;5.60;99.90;;;;;;4958071;28;20499;-86
2022/01/24 02:27:06;;;;;;;1.20;1.10;;;5.60;99.90;;;;;;4957809;28;20498;-85
2022/01/24 02:32:13;;;;;;;1.50;1.40;;;5.60;99.90;;;;;;4955881;28;20472;-86
2022/01/24 02:34:42;;;;;;;0.80;0.73;;;5.60;99.90;;;;;;4958783;28;20441;-85
2022/01/24 02:37:15;;;;;;;1.77;1.67;;;5.60;99.90;;;;;;4954631;28;20182;-85
2022/01/24 02:53:30;;;;;;;2.07;1.97;;;5.50;99.90;;;;;;4961686;28;20848;-86
2022/01/24 02:55:56;;;;;;;1.33;1.23;;;5.50;99.90;;;;;;4962129;28;20506;-85
2022/01/24 02:58:21;;;;;;;0.80;0.70;;;5.50;99.90;;;;;;4942450;28;21052;-85
2022/01/24 03:00:49;;;;;;;2.00;1.90;;;5.50;99.90;;;;;;4974843;28;20229;-85
2022/01/24 03:03:16;;;;;;;1.23;1.13;;;5.50;99.90;;;;;;4960266;28;20965;-85
2022/01/24 03:05:41;;;;;;;3.43;1.70;;;5.50;99.90;;;;;;4959461;28;20472;-85
2022/01/24 03:08:07;;;;;;;1.13;0.93;;;5.50;99.90;;;;;;4956067;28;20572;-85
2022/01/24 03:10:38;;;;;;;1.37;1.00;;;5.50;99.90;;;;;;4965065;28;20178;-85
2022/01/24 03:15:49;;;;;;;0.80;0.70;;;5.50;99.90;;;;;;4963587;28;20462;-85
2022/01/24 03:18:16;;;;;;;0.80;0.70;;;5.60;99.90;;;;;;4955317;28;20488;-85
2022/01/24 03:20:43;;;;;;;0.80;0.80;;;5.60;99.90;;;;;;4959624;28;20449;-85
2022/01/24 03:23:10;;;;;;;1.10;1.00;;;5.60;99.90;;;;;;4942684;28;20988;-86
2022/01/24 03:25:35;;;;;;;3.20;3.07;;;5.50;99.90;;;;;;4964600;28;20585;-85
2022/01/24 03:28:03;;;;;;;2.13;1.93;;;5.50;99.90;;;;;;4962767;28;20926;-85
2022/01/24 03:30:29;;;;;;;1.93;1.27;;;5.50;99.90;;;;;;4969619;28;20233;-85
2022/01/24 03:32:56;;;;;;;1.30;1.20;;;5.50;99.90;;;;;;4941462;28;20452;-86
2022/01/24 03:35:21;;;;;;;1.10;1.00;;;5.50;99.90;;;;;;4972978;28;20186;-85
2022/01/24 03:37:47;;;;;;;1.10;1.00;;;5.60;99.90;;;;;;4961872;28;20455;-86
2022/01/24 03:40:13;;;;;;;1.20;0.90;;;5.50;99.90;;;;;;4952742;28;20589;-85
2022/01/24 03:42:38;;;;;;;0.80;0.80;;;5.50;99.90;;;;;;4967237;28;20592;-85
2022/01/24 03:45:08;;;;;;;1.53;1.43;;;5.50;99.90;;;;;;4970007;28;20642;-85
2022/01/24 03:50:11;;;;;;;2.70;2.13;;;5.50;99.90;;;;;;4962289;28;22389;-85
2022/01/24 03:52:37;;;;;;;3.40;3.10;;;5.50;99.90;;;;;;4944836;28;20468;-86
2022/01/24 03:55:05;;;;;;;1.77;0.80;;;5.40;99.90;;;;;;4944069;28;20457;-88
2022/01/24 03:57:30;;;;;;;2.03;1.47;;;5.40;99.90;;;;;;4951683;28;22117;-87
2022/01/24 03:59:56;;;;;;;0.80;0.70;;;5.40;99.90;;;;;;4964299;28;20447;-86
2022/01/24 04:02:24;;;;;;;1.97;1.87;;;5.40;99.90;;;;;;4960711;28;21126;-86
2022/01/24 04:04:51;;;;;;;1.47;1.37;;;5.40;99.90;;;;;;4943931;28;20225;-86
2022/01/24 04:07:17;;;;;;;0.80;0.80;;;5.40;99.90;;;;;;4962761;28;20989;-86
2022/01/24 04:09:43;;;;;;;1.37;1.27;;;5.40;99.90;;;;;;4960081;28;20445;-86
2022/01/24 04:12:10;;;;;;;0.80;0.80;;;5.40;99.90;;;;;;4949945;28;20480;-86
2022/01/24 04:22:14;;;;;;;1.00;0.90;;;5.50;99.90;;;;;;4959820;28;22670;-87
2022/01/24 04:24:41;;;;;;;1.77;1.67;;;5.50;99.90;;;;;;4959812;28;20444;-87
2022/01/24 04:27:07;;;;;;;0.80;0.70;;;5.40;99.90;;;;;;4969719;28;20489;-87
2022/01/24 04:29:33;;;;;;;2.40;1.90;;;5.40;99.90;;;;;;4965783;28;20473;-87
2022/01/24 04:31:59;;;;;;;0.80;0.80;;;5.40;99.90;;;;;;4972816;28;20495;-87
2022/01/24 04:34:25;;;;;;;1.67;1.57;;;5.40;99.90;;;;;;4963116;28;20531;-86
2022/01/24 04:36:51;;;;;;;0.80;0.80;;;5.50;99.90;;;;;;4953267;28;20545;-87
2022/01/24 04:39:17;;;;;;;0.80;0.80;;;5.50;99.90;;;;;;4975436;28;20186;-87
2022/01/24 04:41:46;;;;;;;1.00;0.90;;;5.50;99.90;;;;;;4963435;28;20533;-87
2022/01/24 04:52:40;;;;;;;1.77;1.30;;;5.50;99.90;;;;;;4958959;28;21911;-87
2022/01/24 04:54:55;;;;;;;0.80;0.70;;;5.50;99.90;;;;;;4957958;28;20961;-87
2022/01/24 04:57:24;;;;;;;0.87;0.87;;;5.50;99.90;;;;;;4961448;28;20453;-87
2022/01/24 04:59:51;;;;;;;0.80;0.70;;;5.50;99.90;;;;;;4966186;28;20613;-86
2022/01/24 05:02:19;;;;;;;1.50;1.40;;;5.40;99.90;;;;;;4946241;28;20463;-87
2022/01/24 05:04:46;;;;;;;1.87;1.17;;;5.50;99.90;;;;;;4964039;28;20972;-87
2022/01/24 05:07:11;;;;;;;1.43;1.33;;;5.50;99.90;;;;;;4944080;28;20862;-87
2022/01/24 05:09:42;;;;;;;0.97;0.90;;;5.50;99.90;;;;;;4958879;28;20453;-87
2022/01/24 05:12:21;;;;;;;0.80;0.70;;;5.50;99.90;;;;;;4959369;28;20185;-87
2022/01/24 05:25:42;;;;;;;0.80;0.70;;;5.50;99.90;;;;;;4956858;28;20530;-87
2022/01/24 05:28:08;;;;;;;0.93;0.83;;;5.50;99.90;;;;;;4942506;28;20941;-87
2022/01/24 05:30:33;;;;;;;1.00;0.90;;;5.50;99.90;;;;;;4967897;28;20284;-87
2022/01/24 05:32:59;;;;;;;1.67;1.57;;;5.50;99.90;;;;;;4961939;28;20197;-87
2022/01/24 05:35:25;;;;;;;3.20;1.00;;;5.50;99.90;;;;;;4966111;28;20186;-87
2022/01/24 05:37:50;;;;;;;2.83;1.50;;;5.50;99.90;;;;;;4959631;28;20659;-88
2022/01/24 05:40:16;;;;;;;0.80;0.70;;;5.50;99.90;;;;;;4963611;28;20269;-87
2022/01/24 05:42:41;;;;;;;1.10;1.00;;;5.50;99.90;;;;;;4958539;28;20557;-87
2022/01/24 05:45:07;;;;;;;0.80;0.63;;;5.40;99.90;;;;;;4966179;28;20674;-87
2022/01/24 05:47:33;;;;;;;1.37;1.27;;;5.50;99.90;;;;;;4967654;28;20222;-87
2022/01/24 05:49:59;;;;;;;1.47;1.37;;;5.50;99.90;;;;;;4963288;28;20433;-87
2022/01/24 05:52:24;;;;;;;0.80;0.80;;;5.50;99.90;;;;;;4959079;28;20177;-86
2022/01/24 05:54:50;;;;;;;1.00;0.90;;;5.50;99.90;;;;;;4959178;28;20624;-87
2022/01/24 05:57:15;;;;;;;1.40;1.20;;;5.50;99.90;;;;;;4958620;28;20261;-87
2022/01/24 05:59:41;;;;;;;1.33;1.23;;;5.40;99.90;;;;;;4969642;28;20181;-87
2022/01/24 06:02:07;;;;;;;2.03;1.47;;;5.40;99.90;;;;;;4964286;28;20205;-86
2022/01/24 06:04:32;;;;;;;0.80;0.80;;;5.40;99.90;;;;;;4960495;28;20193;-86
2022/01/24 06:06:58;;;;;;;1.20;1.07;;;5.50;99.90;;;;;;4960802;28;20221;-87
2022/01/24 06:09:23;;;;;;;1.10;1.00;;;5.40;99.90;;;;;;4962538;28;20241;-87
2022/01/24 06:11:51;;;;;;;1.77;1.67;;;5.50;99.90;;;;;;4970591;28;20194;-87
2022/01/24 06:14:17;;;;;;;1.00;0.90;;;5.50;99.90;;;;;;4970226;28;20549;-86
2022/01/24 06:16:42;;;;;;;2.03;1.20;;;5.40;99.90;;;;;;4963192;28;20510;-87
2022/01/24 06:19:08;;;;;;;2.33;1.97;;;5.50;99.90;;;;;;4962667;28;20186;-87
2022/01/24 06:21:34;;;;;;;1.63;1.53;;;5.50;99.90;;;;;;4974266;28;20217;-86
2022/01/24 06:23:59;;;;;;;1.43;1.20;;;5.50;99.90;;;;;;4967993;28;20301;-88
2022/01/24 06:26:25;;;;;;;0.90;0.80;;;5.50;99.90;;;;;;4968650;28;20217;-88
2022/01/24 06:28:51;;;;;;;1.73;1.63;;;5.40;99.90;;;;;;4969195;28;20498;-88
2022/01/24 06:31:16;;;;;;;1.20;1.10;;;5.50;99.90;;;;;;4974588;28;20233;-88
2022/01/24 06:33:42;;;;;;;1.23;1.10;;;5.50;99.90;;;;;;4952590;28;20181;-88
2022/01/24 06:36:07;;;;;;;1.00;0.90;;;5.50;99.90;;;;;;4961068;28;20181;-88
2022/01/24 06:38:33;;;;;;;1.73;1.63;;;5.50;99.90;;;;;;4948318;28;20202;-87
2022/01/24 06:40:59;;;;;;;0.80;0.70;;;5.50;99.90;;;;;;4969537;28;20272;-86
2022/01/24 06:43:24;;;;;;;1.97;0.97;;;5.40;99.90;;;;;;4969114;28;20182;-87
2022/01/24 06:45:50;;;;;;;0.87;0.80;;;5.40;99.90;;;;;;4970270;28;20220;-86
2022/01/24 06:48:16;;;;;;;0.80;0.80;;;5.40;99.90;;;;;;4969564;28;20638;-86
2022/01/24 06:50:42;;;;;;;0.80;0.70;;;5.40;99.90;;;;;;4969601;28;20449;-87
2022/01/24 06:53:07;;;;;;;0.80;0.77;;;5.40;99.90;;;;;;4969525;28;20643;-86
2022/01/24 06:55:33;;;;;;;2.20;2.10;;;5.40;99.90;;;;;;4969655;28;20650;-87
2022/01/24 06:57:59;;;;;;;1.70;1.60;;;5.40;99.90;;;;;;4975412;28;20195;-87
2022/01/24 07:00:29;;;;;;;0.90;0.80;;;5.40;99.90;;;;;;4962556;28;20193;-86
2022/01/24 07:02:57;;;;;;;0.80;0.70;;;5.40;99.90;;;;;;4970877;28;20186;-86
2022/01/24 07:05:23;;;;;;;0.80;0.70;;;5.40;99.90;;;;;;4971708;28;20434;-87
2022/01/24 07:07:49;;;;;;;3.27;1.50;;;5.40;99.90;;;;;;4975067;28;20437;-86
2022/01/24 07:10:15;;;;;;;1.00;0.90;;;5.40;99.90;;;;;;4972799;28;20933;-87
2022/01/24 07:12:41;;;;;;;0.80;0.70;;;5.40;99.90;;;;;;4974732;28;20589;-86
2022/01/24 07:15:14;;;;;;;0.90;0.80;;;5.40;99.90;;;;;;4971932;28;20449;-86
2022/01/24 07:20:16;;;;;;;8.83;2.20;;;5.40;99.90;;;;;;4970626;28;20945;-86
2022/01/24 07:22:42;;;;;;;1.40;1.30;;;5.40;99.90;;;;;;4982042;28;20520;-87
2022/01/24 07:25:08;;;;;;;0.80;0.67;;;5.40;99.90;;;;;;4974174;28;20886;-86
2022/01/24 07:27:33;;;;;;;3.63;3.33;;;5.40;99.90;;;;;;4974025;28;20586;-86
2022/01/24 07:30:01;;;;;;;0.80;0.70;;;5.40;99.90;;;;;;4972720;28;20487;-84
2022/01/24 07:32:27;;;;;;;1.53;1.43;;;5.40;99.90;;;;;;4963186;28;20186;-84
2022/01/24 07:34:54;;;;;;;0.80;0.70;;;5.40;99.90;;;;;;4974058;28;20463;-85
2022/01/24 07:37:21;;;;;;;1.57;1.47;;;5.40;99.90;;;;;;4971600;28;20472;-84
2022/01/24 07:39:47;;;;;;;0.93;0.87;;;5.40;99.90;;;;;;4969572;28;20453;-83
2022/01/24 07:42:26;;;;;;;0.80;0.70;;;5.40;99.90;;;;;;4979811;28;20873;-84
2022/01/24 07:44:52;;;;;;;3.53;1.60;;;5.50;99.90;;;;;;4981138;28;20200;-83
2022/01/24 07:47:18;;;;;;;1.47;1.37;;;5.50;99.90;;;;;;4969381;28;20492;-83
2022/01/24 07:49:43;;;;;;;1.20;1.10;;;5.40;99.90;;;;;;4958164;28;20603;-86
2022/01/24 07:52:09;;;;;;;0.80;0.60;;;5.40;99.90;;;;;;4966836;28;20556;-86
2022/01/24 07:54:35;;;;;;;1.97;1.87;;;5.40;99.90;;;;;;4972946;28;20182;-85
2022/01/24 07:57:00;;;;;;;0.80;0.70;;;5.40;99.90;;;;;;4976768;28;20724;-86
2022/01/24 07:59:26;;;;;;;0.80;0.70;;;5.40;99.90;;;;;;4969642;28;20189;-87
2022/01/24 08:01:51;;;;;;;1.17;1.07;;;5.30;99.90;;;;;;4952098;28;20207;-87
2022/01/24 08:04:17;;;;;;;1.50;1.40;;;5.30;99.90;;;;;;4985833;28;20785;-86
2022/01/24 08:06:43;;;;;;;0.80;0.70;;;5.30;99.90;;;;;;4978213;28;20237;-86
2022/01/24 08:09:09;;;;;;;0.83;0.83;;;5.30;99.90;;;;;;4970567;28;20192;-86
2022/01/24 08:11:35;;;;;;;1.50;1.40;;;5.40;99.90;;;;;;4972886;28;20193;-86
2022/01/24 08:14:02;;;;;;;1.00;0.90;;;5.30;99.90;;;;;;4970659;28;20824;-87
2022/01/24 08:16:28;;;;;;;1.93;1.13;;;5.30;99.90;;;;;;4974072;28;20448;-87
2022/01/24 08:18:55;;;;;;;1.00;0.90;;;5.30;99.90;;;;;;4973658;28;20508;-86
2022/01/24 08:21:21;;;;;;;1.10;1.00;;;5.30;99.90;;;;;;4960516;28;20452;-87
2022/01/24 08:23:48;;;;;;;3.00;1.10;;;5.30;99.90;;;;;;4974764;28;20512;-87
2022/01/24 08:26:13;;;;;;;1.03;0.97;;;5.30;99.90;;;;;;4953481;28;20469;-86
2022/01/24 08:28:39;;;;;;;1.37;1.27;;;5.30;99.90;;;;;;4964004;28;20448;-87
2022/01/24 08:31:05;;;;;;;1.57;1.47;;;5.40;99.90;;;;;;4947613;28;20247;-87
2022/01/24 08:33:30;;;;;;;0.83;0.83;;;5.30;99.90;;;;;;4984323;28;20197;-87
2022/01/24 08:35:56;;;;;;;0.90;0.80;;;5.30;99.90;;;;;;4950894;28;20647;-86
2022/01/24 08:38:22;;;;;;;0.80;0.60;;;5.30;99.90;;;;;;4966959;28;20194;-87
2022/01/24 08:40:51;;;;;;;1.87;1.53;;;5.30;99.90;;;;;;4972224;28;20194;-86
2022/01/24 08:43:35;;;;;;;1.47;1.00;;;5.30;99.90;;;;;;4971243;28;20524;-86
2022/01/24 08:46:00;;;;;;;0.80;0.73;;;5.30;99.90;;;;;;4966299;28;20919;-86
2022/01/24 08:48:27;;;;;;;0.80;0.80;;;5.30;99.90;;;;;;4946884;28;20458;-86
2022/01/24 08:50:54;;;;;;;1.57;0.90;;;5.30;99.90;;;;;;4949708;28;20228;-86
2022/01/24 08:53:20;;;;;;;1.33;1.23;;;5.30;99.90;;;;;;4958580;28;20882;-86
2022/01/24 08:55:45;;;;;;;0.90;0.80;;;5.30;99.90;;;;;;4968930;28;20541;-86
2022/01/24 08:58:13;;;;;;;1.00;0.90;;;5.30;99.90;;;;;;4954798;28;20178;-86
2022/01/24 09:00:40;;;;;;;1.43;1.13;;;5.30;99.90;;;;;;4971256;28;20248;-86
2022/01/24 09:03:06;;;;;;;0.90;0.77;;;5.30;99.90;;;;;;4964951;28;20462;-86
2022/01/24 09:05:35;;;;;;;0.80;0.80;;;5.30;99.90;;;;;;4965050;28;20819;-87
2022/01/24 09:08:02;;;;;;;1.10;1.00;;;5.30;99.90;;;;;;4965854;28;20197;-86
2022/01/24 09:10:28;;;;;;;1.00;0.90;;;5.30;99.90;;;;;;4965657;28;20508;-86
2022/01/24 09:12:53;;;;;;;0.80;0.70;;;5.30;99.90;;;;;;4971628;28;20453;-86
2022/01/24 09:15:19;;;;;;;0.90;0.80;;;5.30;99.90;;;;;;4969952;28;20200;-86
2022/01/24 09:17:45;;;;;;;3.30;1.20;;;5.20;99.90;;;;;;4961832;28;20298;-87
2022/01/24 09:20:11;;;;;;;0.80;0.80;;;5.20;99.90;;;;;;4978692;28;20535;-87
2022/01/24 09:22:37;;;;;;;0.80;0.70;;;5.30;99.90;;;;;;4970975;28;20185;-87
2022/01/24 09:25:04;;;;;;;1.33;1.23;;;5.30;99.90;;;;;;4968044;28;20442;-87
2022/01/24 09:27:30;;;;;;;0.80;0.70;;;5.30;99.90;;;;;;4964178;28;21091;-86
2022/01/24 09:29:56;;;;;;;3.80;1.53;;;5.30;99.90;;;;;;4983232;28;20512;-86
2022/01/24 09:32:22;;;;;;;1.10;1.00;;;5.30;99.90;;;;;;4984731;28;20198;-87
2022/01/24 09:34:48;;;;;;;0.80;0.60;;;5.30;99.90;;;;;;4970580;28;20972;-86
2022/01/24 09:37:13;;;;;;;0.80;0.70;;;5.30;99.90;;;;;;4949672;28;20198;-86
2022/01/24 09:39:39;;;;;;;1.00;0.90;;;5.30;99.90;;;;;;4967354;28;20634;-86
2022/01/24 09:42:06;;;;;;;7.30;1.80;;;5.30;99.90;;;;;;4971728;28;20198;-86
2022/01/24 09:44:33;;;;;;;1.43;1.33;;;5.30;99.90;;;;;;4971208;28;20208;-86
2022/01/24 09:46:59;;;;;;;1.20;1.10;;;5.30;99.90;;;;;;4970747;28;20528;-86
2022/01/24 09:49:24;;;;;;;0.80;0.80;;;5.30;99.90;;;;;;4958727;28;20960;-86
2022/01/24 09:51:50;;;;;;;1.73;1.50;;;5.30;99.90;;;;;;4953540;28;20567;-86
2022/01/24 09:54:16;;;;;;;1.20;1.10;;;5.30;99.90;;;;;;4961685;28;20554;-85
2022/01/24 09:56:41;;;;;;;0.80;0.70;;;5.30;99.90;;;;;;4946452;28;20186;-87
2022/01/24 09:59:07;;;;;;;1.30;1.20;;;5.30;99.90;;;;;;4965406;28;20190;-85
2022/01/24 10:01:34;;;;;;;0.80;0.70;;;5.30;99.90;;;;;;4972952;28;20603;-85
2022/01/24 10:04:20;;;;;;;0.80;0.77;;;5.30;99.90;;;;;;4971166;28;20437;-86
2022/01/24 10:07:08;;;;;;;0.80;0.80;;;5.20;99.90;;;;;;4952900;28;20480;-86
2022/01/24 10:09:38;;;;;;;1.17;1.07;;;5.30;99.90;;;;;;4969899;28;20472;-88
2022/01/24 10:18:07;;;;;;;1.70;1.60;;;5.20;99.90;;;;;;4953815;28;22827;-88
2022/01/24 10:20:38;;;;;;;6.37;2.57;;;5.20;99.90;;;;;;4949308;28;20526;-88
2022/01/24 10:23:24;;;;;;;1.70;0.93;;;5.20;99.90;;;;;;4968469;28;20507;-88
2022/01/24 10:25:59;;;;;;;0.90;0.80;;;5.20;99.90;;;;;;4960137;28;20476;-86
2022/01/24 10:28:38;;;;;;;0.80;0.70;;;5.20;99.90;;;;;;4962880;28;20452;-86
2022/01/24 10:31:07;;;;;;;1.43;1.33;;;5.30;99.90;;;;;;4933864;28;20475;-87
2022/01/24 10:33:58;;;;;;;0.80;0.70;;;5.30;99.90;;;;;;4954692;28;20446;-86
2022/01/24 10:36:35;;;;;;;0.80;0.80;;;5.20;99.90;;;;;;4947259;28;21005;-88
2022/01/24 10:39:33;;;;;;;0.80;0.70;;;5.20;99.90;;;;;;4949783;28;20496;-88
2022/01/24 10:42:41;;;;;;;1.00;0.90;;;5.20;99.90;;;;;;4938325;28;20438;-88
2022/01/24 10:45:15;;;;;;;1.33;1.23;;;5.30;99.90;;;;;;4953634;28;20441;-85
2022/01/24 10:47:45;;;;;;;1.47;1.37;;;5.30;99.90;;;;;;4935011;29;20994;-86
2022/01/24 10:50:27;;;;;;;1.17;1.07;;;5.30;99.90;;;;;;4934822;29;20955;-86
2022/01/24 10:52:52;;;;;;;2.03;1.10;;;5.30;99.90;;;;;;4955568;28;20442;-86
2022/01/24 10:55:22;;;;;;;0.83;0.70;;;5.30;99.90;;;;;;4958801;28;20437;-85
2022/01/24 10:57:50;;;;;;;1.57;1.47;;;5.30;99.90;;;;;;4951049;28;20201;-86
2022/01/24 11:00:25;;;;;;;2.70;1.33;;;5.20;99.90;;;;;;4953799;28;20436;-87
2022/01/24 11:02:53;;;;;;;1.57;1.47;;;5.30;99.90;;;;;;4935914;29;20457;-87
2022/01/24 11:05:26;;;;;;;1.77;1.27;;;5.30;99.90;;;;;;4954270;28;20667;-85
2022/01/24 11:07:59;;;;;;;1.20;0.97;;;5.30;99.90;;;;;;4933358;29;20515;-85
2022/01/24 11:10:32;;;;;;;0.90;0.80;;;5.30;99.90;;;;;;4933579;29;20801;-86
2022/01/24 11:12:58;;;;;;;0.97;0.90;;;5.30;99.90;;;;;;4944126;28;21018;-86
2022/01/24 11:15:25;;;;;;;0.80;0.73;;;5.30;99.90;;;;;;4953847;28;20949;-86
2022/01/24 11:17:52;;;;;;;0.80;0.80;;;5.30;99.90;;;;;;4950490;28;21015;-85
2022/01/24 11:20:19;;;;;;;1.33;1.07;;;5.30;99.90;;;;;;4933047;28;21006;-87
2022/01/24 11:22:49;;;;;;;2.00;1.90;;;5.20;99.90;;;;;;4947698;28;20493;-87
2022/01/24 11:25:15;;;;;;;1.00;0.90;;;5.20;99.90;;;;;;4956871;28;20429;-87
2022/01/24 11:27:43;;;;;;;9.53;2.53;;;5.20;99.90;;;;;;4956891;28;20500;-87
2022/01/24 11:30:14;;;;;;;0.80;0.80;;;5.20;99.90;;;;;;4946529;28;20698;-86
2022/01/24 11:32:52;;;;;;;0.80;0.70;;;5.20;99.90;;;;;;4961814;28;20581;-87
2022/01/24 11:35:54;;;;;;;1.30;1.17;;;5.20;99.90;;;;;;4935244;28;20482;-88
2022/01/24 11:38:39;;;;;;;4.40;2.00;;;5.20;99.90;;;;;;4941433;28;20520;-88
2022/01/24 11:41:22;;;;;;;1.97;1.07;;;5.20;99.90;;;;;;4947279;28;20465;-86
2022/01/24 11:43:51;;;;;;;4.47;4.03;;;5.20;99.90;;;;;;4946487;28;20449;-85
2022/01/24 11:46:46;;;;;;;1.00;0.90;;;5.20;99.90;;;;;;4937424;29;20470;-86
2022/01/24 11:49:18;;;;;;;0.80;0.70;;;5.20;99.90;;;;;;4951420;28;20939;-88
2022/01/24 11:51:47;;;;;;;1.77;1.57;;;5.20;99.90;;;;;;4937165;29;20983;-86
2022/01/24 11:54:44;;;;;;;0.93;0.80;;;5.20;99.90;;;;;;4937458;28;21209;-89
2022/01/24 11:57:27;;;;;;;0.90;0.80;;;5.20;99.90;;;;;;4945550;28;20442;-88
2022/01/24 12:00:02;;;;;;;0.80;0.70;;;5.10;99.90;;;;;;4951796;28;20447;-89
2022/01/24 12:02:31;;;;;;;2.33;2.23;;;5.10;99.90;;;;;;4959443;28;20854;-88
2022/01/24 12:05:08;;;;;;;1.10;1.00;;;5.10;99.90;;;;;;4945663;28;20444;-88
2022/01/24 12:07:51;;;;;;;3.23;1.60;;;5.10;99.90;;;;;;4952303;28;20485;-87
2022/01/24 12:10:38;;;;;;;2.20;1.20;;;5.10;99.90;;;;;;4947514;28;20934;-87
2022/01/24 12:13:18;;;;;;;2.70;1.03;;;5.10;99.90;;;;;;4947610;28;20548;-88
2022/01/24 12:15:43;;;;;;;1.20;1.10;;;5.10;99.90;;;;;;4956619;28;20440;-89
2022/01/24 12:18:11;;;;;;;0.80;0.80;;;5.20;99.90;;;;;;4936654;29;20540;-87
2022/01/24 12:20:42;;;;;;;0.90;0.80;;;5.10;99.90;;;;;;4944911;28;20199;-88
2022/01/24 12:23:16;;;;;;;5.00;2.80;;;5.10;99.90;;;;;;4949246;28;20484;-88
2022/01/24 12:26:14;;;;;;;2.40;2.20;;;5.10;99.90;;;;;;4951829;28;20852;-88
2022/01/24 12:28:42;;;;;;;2.13;1.63;;;5.20;99.90;;;;;;4949579;28;20949;-86
2022/01/24 12:31:15;;;;;;;1.83;1.73;;;5.20;99.90;;;;;;4970075;28;21021;-86
2022/01/24 12:33:43;;;;;;;2.87;2.73;;;5.20;99.90;;;;;;4967635;28;20457;-86
2022/01/24 12:36:13;;;;;;;3.50;3.30;;;5.20;99.90;;;;;;4973117;28;20560;-86
2022/01/24 12:38:50;;;;;;;1.13;1.00;;;5.20;99.90;;;;;;4954820;28;20437;-87
2022/01/24 12:41:26;;;;;;;0.90;0.90;;;5.20;99.90;;;;;;4966594;28;20503;-88
2022/01/24 12:43:58;;;;;;;3.60;1.90;;;5.20;99.90;;;;;;4970209;28;20580;-86
2022/01/24 12:46:27;;;;;;;2.60;1.47;;;5.20;99.90;;;;;;4970470;28;20480;-87
2022/01/24 12:49:06;;;;;;;1.27;1.17;;;5.10;99.90;;;;;;4962659;28;20445;-88
2022/01/24 12:51:35;;;;;;;1.47;1.33;;;5.10;99.90;;;;;;4962675;28;20446;-88
2022/01/24 12:54:02;;;;;;;2.20;2.10;;;5.20;99.90;;;;;;4967747;28;20554;-86
2022/01/24 12:56:29;;;;;;;0.83;0.77;;;5.20;99.90;;;;;;4973092;28;20480;-86
2022/01/24 12:58:56;;;;;;;1.83;1.43;;;5.20;99.90;;;;;;4968158;28;20460;-85
2022/01/24 13:01:26;;;;;;;3.70;3.03;;;5.10;99.90;;;;;;4975339;28;20840;-86
2022/01/24 13:04:00;;;;;;;0.87;0.80;;;5.20;99.90;;;;;;4972589;28;20487;-86
2022/01/24 13:06:31;;;;;;;2.50;2.37;;;5.20;99.90;;;;;;4968739;28;20500;-88
2022/01/24 13:09:12;;;;;;;1.20;1.10;;;5.20;99.90;;;;;;4962520;28;20524;-88
2022/01/24 13:11:46;;;;;;;2.60;2.43;;;5.10;99.90;;;;;;4967842;28;20444;-85
2022/01/24 13:14:24;;;;;;;1.57;1.33;;;5.10;99.90;;;;;;4960706;28;20493;-86
2022/01/24 13:25:23;;;;;;;1.00;0.90;;;5.20;99.90;;;;;;4970737;28;20524;-87
2022/01/24 13:27:52;;;;;;;0.90;0.80;;;5.10;99.90;;;;;;4963097;28;20575;-88
2022/01/24 13:30:27;;;;;;;3.47;2.10;;;5.10;99.90;;;;;;4969033;28;20505;-85
2022/01/24 13:32:57;;;;;;;1.27;1.00;;;5.10;99.90;;;;;;4969648;28;21012;-86
2022/01/24 13:35:25;;;;;;;2.03;1.83;;;5.10;99.90;;;;;;4961272;28;20934;-88
2022/01/24 13:37:51;;;;;;;1.00;0.90;;;5.10;99.90;;;;;;4961492;28;20441;-87
2022/01/24 13:40:34;;;;;;;1.40;1.27;;;5.10;99.90;;;;;;4942285;28;20458;-86
2022/01/24 13:43:01;;;;;;;1.27;1.17;;;5.20;99.90;;;;;;4966886;28;20185;-88
2022/01/24 13:45:27;;;;;;;1.83;1.73;;;5.10;99.90;;;;;;4947116;28;20506;-87
2022/01/24 13:48:00;;;;;;;2.20;2.00;;;5.10;99.90;;;;;;4967727;28;20573;-88
2022/01/24 13:50:27;;;;;;;0.80;0.80;;;5.10;99.90;;;;;;4968712;28;20192;-87
2022/01/24 13:52:53;;;;;;;0.90;0.90;;;5.10;99.90;;;;;;4979772;28;20459;-88
2022/01/24 13:55:22;;;;;;;1.63;1.50;;;5.10;99.90;;;;;;4968453;28;20433;-86
2022/01/24 13:57:50;;;;;;;3.33;2.60;;;5.10;99.90;;;;;;4966951;28;20449;-85
2022/01/24 14:00:22;;;;;;;2.23;1.77;;;5.10;99.90;;;;;;4953397;28;20440;-85
2022/01/24 14:02:47;;;;;;;5.83;3.90;;;5.20;99.90;;;;;;4954812;28;21164;-85
2022/01/24 14:05:14;;;;;;;73.13;2.80;;;5.10;99.90;;;;;;4955043;28;20442;-85
2022/01/24 14:07:43;;;;;;;1.50;1.40;;;5.10;99.90;;;;;;4974589;28;20229;-86
2022/01/24 14:10:12;;;;;;;0.80;0.80;;;5.10;99.90;;;;;;4967309;28;20429;-87
2022/01/24 14:12:53;;;;;;;5.80;1.87;;;5.10;99.90;;;;;;4961040;28;20448;-85
2022/01/24 14:20:45;;;;;;;1.20;1.10;;;5.10;99.90;;;;;;4975901;28;20540;-88
2022/01/24 14:23:34;;;;;;;1.20;1.10;;;5.10;99.90;;;;;;4953848;28;20452;-87
2022/01/24 14:26:12;;;;;;;0.80;0.80;;;5.10;99.90;;;;;;4943811;28;20471;-87
2022/01/24 14:28:37;;;;;;;1.43;1.30;;;5.10;99.90;;;;;;4963423;28;20995;-87
2022/01/24 14:31:05;;;;;;;5.40;4.77;;;5.10;99.90;;;;;;4976233;28;20489;-87
2022/01/24 14:33:33;;;;;;;2.53;2.33;;;5.10;99.90;;;;;;4966200;28;20194;-85
2022/01/24 14:36:04;;;;;;;1.57;1.47;;;5.10;99.90;;;;;;4967094;28;20446;-87
2022/01/24 14:38:40;;;;;;;1.33;1.23;;;5.10;99.90;;;;;;4971889;28;20511;-85
2022/01/24 14:41:14;;;;;;;3.23;2.13;;;5.10;99.90;;;;;;4971064;28;20451;-87
2022/01/24 14:46:36;;;;;;;2.07;1.43;;;5.10;99.90;;;;;;4964141;28;20586;-85
2022/01/24 14:49:10;;;;;;;1.10;1.00;;;5.10;99.90;;;;;;4982161;28;20483;-85
2022/01/24 14:51:38;;;;;;;0.80;0.80;;;5.10;99.90;;;;;;4958034;28;20436;-85
2022/01/24 14:54:06;;;;;;;1.00;0.90;;;5.10;99.90;;;;;;4971090;28;20440;-85
2022/01/24 14:56:34;;;;;;;2.43;1.30;;;5.10;99.90;;;;;;4951001;28;20480;-87
2022/01/24 14:59:02;;;;;;;8.23;2.00;;;5.10;99.90;;;;;;4963343;28;20448;-86
2022/01/24 15:01:28;;;;;;;1.47;1.30;;;5.10;99.90;;;;;;4959393;28;20458;-86
2022/01/24 15:03:54;;;;;;;8.43;1.57;;;5.00;99.90;;;;;;4976443;28;20450;-85
2022/01/24 15:06:20;;;;;;;2.93;2.20;;;5.10;99.90;;;;;;4983814;28;20216;-87
2022/01/24 15:08:47;;;;;;;2.37;2.17;;;5.10;99.90;;;;;;4959522;28;20456;-86
2022/01/24 15:11:16;;;;;;;5.50;3.17;;;5.00;99.90;;;;;;4975039;28;20224;-87
2022/01/24 15:13:49;;;;;;;1.13;1.03;;;5.00;99.90;;;;;;4955715;28;20577;-85
2022/01/24 15:16:18;;;;;;;2.70;2.50;;;5.00;99.90;;;;;;4951487;28;20572;-85
2022/01/24 15:26:43;;;;;;;2.00;1.90;;;5.00;99.90;;;;;;4979241;28;20485;-87